Airfield :
LOGIN :

Register | Disclaimer

   EN    FR    IT 

 










Legend :    VFR   Marginal VFR   IFR   Intensive IFR   Very Intensive IFR
Visi :
Ceiling :
>= 8 km
>= 3000ft
5 to 8 km
1000 to 3000 ft
1500m to 5 km
500 to 1000 ft
800 to 1500m
200 to 500 ft
< 800m
< 200 ft
Symbols :   Thunderstorms  Fog  Heavy snow  Heavy precipitations  Wind > 20 kt
SIGMETs :     Misc.  Thunderstorms  Icing  Turbulence  Mountain Waves  Volcanic Ashes






- Airport Elevation : 102 ft
- IATA code : KEL


EDHK - Holtenau

CURRENT METAR :
  • 041150Z 26012KT 220V290 9999 FEW033 SCT037 19/10 Q1017

EXPIRED METARs :
  • 041120Z 26010KT 9999 BKN032 BKN037 18/12 Q1017
  • 041050Z 25012KT 9999 BKN032 18/10 Q1017
  • 041020Z 25010KT 220V290 9999 SCT030 19/11 Q1017
  • 040950Z 25011KT 9999 SCT032 18/11 Q1017
  • 040920Z 25010KT 220V280 9999 FEW028 18/12 Q1017

TAF TAF EDHK
Valid from the 04 at 12:00 until the 04 at 19:00 UTC


041100Z 0412/0419 25012KT 9999 SCT030
PROB30
TEMPO 0412/0416 27015G25KT SHRA BKN030TCU



MET'MAP, your aeronautical weather chart ! - Copyright ORBIFLY December 2007 - Disclaimer

ORBIFLY MET'MAP TEAM :

Programming & Development : Alexandra Zaïnal
Original concept : Baudouin d'Aumeries
Technical & hardware support : Manuel Goepfert
Assistance : Marc-Olivier Méhu




SOURCES & CREDITS :

   NOAA